Archival Weather

General Ignacio P Garcia Intl

General Ignacio P Garcia Intl, Mexico (MMHO)

Report from: Wednesday, December 6, 2023 8:41 AM CST
Current time: Friday, February 23, 2024 2:11 PM CST

Current weather – Weather history – Daily summaries
Weather forecast

Temperature10.0°C (50.0°F)
Dew point-2.0°C (28.4°F)
Winds Calm
Visibility10 mi. (16.1 km)
Clouds Scattered clouds 9,000 ft. (2,743 m)
Ceiling: Broken clouds 20,000 ft. (6,096 m)
Altimeter30.07 in.Hg (1018 mB)
Relative humidity43 %
Density altitude-702 ft. (-214 m)
Sea-level pressure101.9 kPa (1019 mB, 30.09 in.Hg)
Remarks Pressure rising
Flight conditions Visual Meteorological Conditions
Raw dataMMHO 061441Z 00000KT 10SM SCT090 BKN200 10/M02 A3007 RMK SLP188 52013 958 8/038 HZY
An error has occurred. This application may no longer respond until reloaded. Reload 🗙